Time;durP1;ratioP1;P1;durP2;ratioP2;P2;SDS_P1;SDS_P2;PMS_P1;PMS_P2;Temp;Humidity;BMP_temperature;BMP_pressure;BME280_temperature;BME280_humidity;BME280_pressure;Samples;Min_cycle;Max_cycle;Signal;HPM_P1;HPM_P2
2022/12/12 00:00:43;;;;;;;14.32;8.05;;;-4.40;69.20;;;;;;5103429;28;20195;-67
2022/12/12 00:03:10;;;;;;;13.02;8.07;;;-4.50;69.70;;;;;;5117773;28;20192;-67
2022/12/12 00:05:38;;;;;;;15.90;8.48;;;-4.60;69.80;;;;;;5110810;28;20181;-67
2022/12/12 00:08:06;;;;;;;16.17;9.02;;;-4.60;69.70;;;;;;5096400;28;20685;-67
2022/12/12 00:10:34;;;;;;;14.82;8.05;;;-4.70;70.20;;;;;;5101020;28;20247;-67
2022/12/12 00:13:04;;;;;;;16.65;8.25;;;-4.70;70.90;;;;;;5116708;28;20271;-67
2022/12/12 00:15:31;;;;;;;21.42;10.20;;;-4.80;71.20;;;;;;5112935;28;20185;-67
2022/12/12 00:18:01;;;;;;;14.15;8.02;;;-4.70;71.20;;;;;;5096480;28;20208;-67
2022/12/12 00:20:29;;;;;;;16.08;8.07;;;-4.80;70.00;;;;;;5098757;28;20635;-67
2022/12/12 00:22:57;;;;;;;15.20;8.40;;;-4.80;70.80;;;;;;5115003;28;20480;-67
2022/12/12 00:25:25;;;;;;;18.23;9.63;;;-4.90;71.50;;;;;;5096376;28;20203;-66
2022/12/12 00:27:52;;;;;;;20.40;9.57;;;-4.90;71.90;;;;;;5096156;28;20272;-67
2022/12/12 00:30:21;;;;;;;16.02;8.68;;;-4.90;72.00;;;;;;5096582;28;20189;-67
2022/12/12 00:32:48;;;;;;;18.17;9.23;;;-4.90;72.40;;;;;;5096516;28;20185;-67
2022/12/12 00:35:15;;;;;;;18.38;8.70;;;-4.80;72.50;;;;;;5115697;28;20180;-66
2022/12/12 00:37:43;;;;;;;13.70;8.13;;;-4.80;72.50;;;;;;5116703;28;20189;-67
2022/12/12 00:40:14;;;;;;;14.02;7.82;;;-4.80;72.20;;;;;;5095107;28;20258;-67
2022/12/12 00:42:41;;;;;;;15.60;7.40;;;-4.70;71.60;;;;;;5096436;28;20197;-67
2022/12/12 00:45:11;;;;;;;13.20;7.32;;;-4.70;71.50;;;;;;5096204;28;20272;-67
2022/12/12 00:47:40;;;;;;;15.35;7.57;;;-4.60;71.30;;;;;;5095954;28;20192;-67
2022/12/12 00:50:10;;;;;;;15.82;8.57;;;-4.70;71.20;;;;;;5112422;28;20355;-67
2022/12/12 00:52:37;;;;;;;12.75;7.72;;;-4.60;71.40;;;;;;5100357;28;20193;-67
2022/12/12 00:55:05;;;;;;;19.20;9.15;;;-4.70;70.70;;;;;;5096006;28;20203;-67
2022/12/12 00:57:38;;;;;;;12.75;8.25;;;-4.70;70.70;;;;;;5109433;28;20654;-67
2022/12/12 01:00:07;;;;;;;16.38;8.68;;;-4.70;70.70;;;;;;5116533;28;20223;-67
2022/12/12 01:02:35;;;;;;;14.15;8.45;;;-4.70;71.00;;;;;;5102016;28;20191;-68
2022/12/12 01:05:04;;;;;;;12.25;7.85;;;-4.70;71.00;;;;;;5094942;28;20263;-67
2022/12/12 01:07:32;;;;;;;13.15;7.47;;;-4.70;70.30;;;;;;5107555;28;20184;-66
2022/12/12 01:09:59;;;;;;;13.60;7.38;;;-4.70;70.80;;;;;;5114702;28;20245;-67
2022/12/12 01:12:27;;;;;;;13.30;6.97;;;-4.80;70.40;;;;;;5115843;28;20219;-68
2022/12/12 01:14:54;;;;;;;10.23;6.70;;;-4.80;70.50;;;;;;5115359;28;20188;-67
2022/12/12 01:17:21;;;;;;;13.10;7.55;;;-4.80;70.90;;;;;;5095037;28;20196;-67
2022/12/12 01:19:49;;;;;;;13.70;7.78;;;-4.80;71.20;;;;;;5095752;28;20185;-67
2022/12/12 01:22:17;;;;;;;13.70;7.40;;;-4.80;71.20;;;;;;5095180;28;20665;-69
2022/12/12 01:24:45;;;;;;;11.95;6.97;;;-4.80;71.20;;;;;;5101526;28;20184;-67
2022/12/12 01:27:12;;;;;;;13.68;8.10;;;-4.70;71.10;;;;;;5115946;28;20219;-67
2022/12/12 01:29:40;;;;;;;15.23;6.80;;;-4.70;71.10;;;;;;5110050;28;20185;-67
2022/12/12 01:32:07;;;;;;;9.52;5.90;;;-4.70;71.00;;;;;;5094867;28;20231;-67
2022/12/12 01:34:34;;;;;;;13.48;7.28;;;-4.60;71.20;;;;;;5098579;28;20184;-68
2022/12/12 01:37:03;;;;;;;10.60;6.72;;;-4.60;71.00;;;;;;5115358;28;20600;-67
2022/12/12 01:39:32;;;;;;;13.65;7.13;;;-4.60;71.10;;;;;;5111863;28;20555;-68
2022/12/12 01:41:59;;;;;;;12.05;6.85;;;-4.60;71.20;;;;;;5094554;28;20189;-65
2022/12/12 01:44:42;;;;;;;8.52;6.15;;;-4.60;71.00;;;;;;5096238;28;20298;-68
2022/12/12 01:47:11;;;;;;;13.30;7.38;;;-4.60;69.50;;;;;;5112960;28;20211;-67
2022/12/12 01:49:40;;;;;;;14.07;6.95;;;-4.60;68.50;;;;;;5094875;28;20280;-67
2022/12/12 01:52:11;;;;;;;9.48;6.05;;;-4.70;67.20;;;;;;5094773;28;20242;-68
2022/12/12 01:54:45;;;;;;;10.10;6.13;;;-4.90;66.50;;;;;;5114997;28;20245;-68
2022/12/12 01:57:19;;;;;;;10.45;6.25;;;-5.00;67.00;;;;;;5113760;28;20275;-67
2022/12/12 01:59:46;;;;;;;13.20;7.85;;;-5.10;67.50;;;;;;5094719;28;20221;-68
2022/12/12 02:02:14;;;;;;;10.93;6.38;;;-5.10;67.90;;;;;;5094867;28;20192;-67
2022/12/12 02:04:42;;;;;;;16.05;6.97;;;-5.20;66.40;;;;;;5114762;28;20230;-68
2022/12/12 02:07:09;;;;;;;13.05;6.85;;;-5.40;65.20;;;;;;5114802;28;20583;-67
2022/12/12 02:09:37;;;;;;;10.50;6.50;;;-5.50;65.40;;;;;;5094436;28;20193;-68
2022/12/12 02:12:07;;;;;;;8.65;6.18;;;-5.50;66.00;;;;;;5094163;28;20243;-68
2022/12/12 02:14:38;;;;;;;12.50;7.68;;;-5.60;66.40;;;;;;5113006;28;20196;-67
2022/12/12 02:17:26;;;;;;;9.48;5.43;;;-5.70;66.20;;;;;;5096534;28;20646;-67
2022/12/12 02:20:27;;;;;;;8.98;5.15;;;-5.90;66.70;;;;;;5094082;28;20201;-68
2022/12/12 02:23:18;;;;;;;14.65;6.75;;;-6.00;67.30;;;;;;5079724;28;20561;-68
2022/12/12 02:26:15;;;;;;;11.27;5.68;;;-6.10;68.10;;;;;;5094394;28;20213;-68
2022/12/12 02:29:06;;;;;;;11.38;6.20;;;-6.10;67.70;;;;;;5093879;28;20553;-66
2022/12/12 02:31:40;;;;;;;8.90;5.80;;;-6.10;68.10;;;;;;5105949;28;20212;-68
2022/12/12 02:34:16;;;;;;;13.48;5.65;;;-6.20;68.40;;;;;;5114243;28;20195;-67
2022/12/12 02:36:50;;;;;;;11.63;5.97;;;-6.20;67.70;;;;;;5100188;28;20199;-68
2022/12/12 02:39:26;;;;;;;10.75;6.30;;;-6.30;64.90;;;;;;5093620;28;20189;-67
2022/12/12 02:42:00;;;;;;;8.90;6.07;;;-6.50;64.60;;;;;;5107831;28;20642;-67
2022/12/12 02:44:34;;;;;;;9.48;6.13;;;-6.50;66.20;;;;;;5114211;28;20192;-67
2022/12/12 02:47:08;;;;;;;10.70;5.65;;;-6.50;67.00;;;;;;5098523;28;20181;-67
2022/12/12 02:49:38;;;;;;;10.85;6.03;;;-6.50;67.30;;;;;;5094557;28;20181;-67
2022/12/12 02:52:09;;;;;;;10.73;5.85;;;-6.50;69.30;;;;;;5093272;28;20212;-67
2022/12/12 02:54:37;;;;;;;12.98;5.95;;;-6.50;69.10;;;;;;5103002;28;20628;-67
2022/12/12 02:57:14;;;;;;;10.63;5.80;;;-6.50;68.90;;;;;;5114358;28;20193;-67
2022/12/12 02:59:44;;;;;;;12.90;6.60;;;-6.50;69.20;;;;;;5100636;28;20246;-67
2022/12/12 03:09:07;;;;;;;9.27;5.32;;;-6.60;69.50;;;;;;4972161;28;20197;-68
2022/12/12 03:11:46;;;;;;;11.43;6.32;;;-6.50;70.10;;;;;;5042676;28;20227;-67
2022/12/12 03:14:22;;;;;;;13.60;5.78;;;-6.50;70.70;;;;;;5096688;28;20184;-68
2022/12/12 03:17:01;;;;;;;11.77;4.32;;;-6.50;70.70;;;;;;5105924;28;20225;-68
2022/12/12 03:19:30;;;;;;;11.18;6.50;;;-6.40;70.50;;;;;;5093323;28;20189;-68
2022/12/12 03:22:03;;;;;;;10.30;4.97;;;-6.40;70.00;;;;;;5100560;28;20669;-68
2022/12/12 03:24:35;;;;;;;9.82;5.43;;;-6.50;70.10;;;;;;5101182;28;20667;-68
2022/12/12 03:27:10;;;;;;;8.50;5.22;;;-6.60;70.20;;;;;;5093237;28;20264;-68
2022/12/12 03:29:43;;;;;;;8.57;4.47;;;-6.60;70.50;;;;;;5092290;28;20195;-67
2022/12/12 03:32:19;;;;;;;8.93;4.88;;;-6.70;70.60;;;;;;5093541;28;20208;-67
2022/12/12 03:34:51;;;;;;;11.63;6.55;;;-6.70;70.70;;;;;;5092854;28;20188;-68
2022/12/12 03:37:23;;;;;;;12.02;5.95;;;-6.70;70.70;;;;;;5101968;28;20187;-68
2022/12/12 03:39:57;;;;;;;8.85;5.18;;;-6.60;69.40;;;;;;5113184;28;20200;-67
2022/12/12 03:42:31;;;;;;;6.60;4.45;;;-6.60;68.20;;;;;;5103060;28;20195;-67
2022/12/12 03:45:03;;;;;;;8.38;5.28;;;-6.60;67.40;;;;;;5092963;28;20196;-67
2022/12/12 03:47:38;;;;;;;11.75;5.15;;;-6.70;66.10;;;;;;5102093;28;20272;-68
2022/12/12 03:50:11;;;;;;;12.25;6.43;;;-6.70;65.80;;;;;;5113297;28;20198;-67
2022/12/12 03:52:45;;;;;;;7.20;4.65;;;-6.70;65.80;;;;;;5102450;28;20312;-67
2022/12/12 03:55:16;;;;;;;10.15;4.57;;;-6.80;65.90;;;;;;5092686;28;20704;-67
2022/12/12 03:57:50;;;;;;;10.23;5.45;;;-6.80;66.20;;;;;;5093027;28;20283;-68
2022/12/12 04:00:18;;;;;;;10.40;4.65;;;-6.90;66.40;;;;;;5101383;28;20263;-67
2022/12/12 04:02:51;;;;;;;8.13;5.28;;;-6.90;66.70;;;;;;5113744;28;20203;-67
2022/12/12 04:05:24;;;;;;;9.10;5.13;;;-6.90;67.20;;;;;;5104775;28;20217;-67
2022/12/12 04:07:59;;;;;;;7.90;4.65;;;-6.80;67.90;;;;;;5092984;28;20193;-67
2022/12/12 04:13:30;;;;;;;11.18;6.00;;;-6.80;68.10;;;;;;5076777;28;20357;-68
2022/12/12 04:16:06;;;;;;;12.63;6.78;;;-6.80;69.10;;;;;;5100577;28;20185;-67
2022/12/12 04:18:40;;;;;;;17.60;8.23;;;-6.80;69.70;;;;;;5093401;28;20674;-67
2022/12/12 04:24:13;;;;;;;16.75;6.93;;;-7.00;70.00;;;;;;5107939;28;20187;-67
2022/12/12 04:26:50;;;;;;;8.85;5.68;;;-7.00;70.50;;;;;;5113115;28;20199;-67
2022/12/12 04:29:34;;;;;;;8.27;5.50;;;-6.90;70.70;;;;;;5096225;28;20220;-67
2022/12/12 04:32:18;;;;;;;10.40;5.60;;;-6.90;68.90;;;;;;5092713;28;20217;-67
2022/12/12 04:34:53;;;;;;;8.70;4.60;;;-7.00;67.50;;;;;;5113085;28;20192;-67
2022/12/12 04:37:27;;;;;;;7.85;4.47;;;-7.00;68.60;;;;;;5113187;28;20247;-67
2022/12/12 04:40:00;;;;;;;9.40;3.97;;;-7.00;68.80;;;;;;5092855;28;20196;-67
2022/12/12 04:42:31;;;;;;;8.82;5.10;;;-6.90;68.40;;;;;;5095620;28;20714;-67
2022/12/12 04:45:05;;;;;;;8.40;4.88;;;-6.90;67.60;;;;;;5095888;28;20197;-67
2022/12/12 04:47:36;;;;;;;6.45;3.60;;;-6.90;67.30;;;;;;5096652;28;20243;-67
2022/12/12 04:50:06;;;;;;;9.82;5.40;;;-6.90;66.90;;;;;;5095820;28;20189;-67
2022/12/12 04:52:37;;;;;;;11.90;5.50;;;-6.90;67.00;;;;;;5114590;28;20293;-68
2022/12/12 04:55:17;;;;;;;10.75;5.38;;;-6.90;67.70;;;;;;5115862;28;20192;-68
2022/12/12 04:57:48;;;;;;;8.45;4.03;;;-6.90;68.00;;;;;;5095465;28;20666;-67
2022/12/12 05:00:16;;;;;;;8.00;4.82;;;-7.00;67.30;;;;;;5095405;28;20554;-67
2022/12/12 05:02:50;;;;;;;10.60;5.90;;;-6.90;67.30;;;;;;5115400;28;20520;-67
2022/12/12 05:05:21;;;;;;;10.48;6.32;;;-6.90;67.20;;;;;;5115422;28;20650;-68
2022/12/12 05:07:54;;;;;;;12.02;6.50;;;-6.90;67.30;;;;;;5114907;28;20193;-68
2022/12/12 05:10:24;;;;;;;10.93;7.20;;;-6.90;67.90;;;;;;5115571;28;20199;-67
2022/12/12 05:13:00;;;;;;;9.85;6.25;;;-6.90;67.70;;;;;;5094977;28;20212;-67
2022/12/12 05:15:31;;;;;;;8.82;5.18;;;-6.90;67.60;;;;;;5095255;28;20189;-67
2022/12/12 05:18:01;;;;;;;8.73;5.95;;;-7.00;67.50;;;;;;5115155;28;20189;-67
2022/12/12 05:20:29;;;;;;;10.60;5.18;;;-7.00;67.60;;;;;;5096002;28;20192;-67
2022/12/12 05:22:57;;;;;;;10.52;5.90;;;-7.10;67.80;;;;;;5095110;28;20200;-68
2022/12/12 05:25:26;;;;;;;11.43;6.72;;;-7.10;68.20;;;;;;5097265;28;20220;-67
2022/12/12 05:27:53;;;;;;;9.00;5.45;;;-7.10;68.70;;;;;;5114858;28;20195;-67
2022/12/12 05:30:24;;;;;;;7.40;5.00;;;-7.00;68.50;;;;;;5115218;28;20188;-68
2022/12/12 05:32:52;;;;;;;11.35;5.50;;;-7.10;68.10;;;;;;5114920;28;20212;-67
2022/12/12 05:35:20;;;;;;;9.60;5.25;;;-7.10;67.70;;;;;;5094731;28;20272;-67
2022/12/12 05:37:48;;;;;;;7.45;4.43;;;-7.10;67.20;;;;;;5094627;28;20197;-67
2022/12/12 05:40:15;;;;;;;9.48;5.15;;;-7.20;67.00;;;;;;5113105;28;20195;-67
2022/12/12 05:42:44;;;;;;;8.40;4.85;;;-7.20;66.90;;;;;;5107765;28;20211;-67
2022/12/12 05:45:12;;;;;;;8.40;4.53;;;-7.10;66.70;;;;;;5094624;28;20206;-67
2022/12/12 05:47:42;;;;;;;7.10;4.35;;;-7.20;67.10;;;;;;5099947;28;20185;-68
2022/12/12 05:50:10;;;;;;;9.65;6.30;;;-7.10;67.50;;;;;;5114941;28;20184;-68
2022/12/12 05:52:38;;;;;;;9.60;5.13;;;-7.10;67.60;;;;;;5101838;28;20223;-67
2022/12/12 05:55:06;;;;;;;7.25;3.72;;;-7.10;67.90;;;;;;5094294;28;20620;-68
2022/12/12 05:57:34;;;;;;;8.00;4.38;;;-7.00;69.10;;;;;;5094530;28;20185;-67
2022/12/12 06:00:05;;;;;;;6.85;3.85;;;-7.00;68.30;;;;;;5094448;28;20185;-67
2022/12/12 06:02:32;;;;;;;9.13;4.78;;;-7.00;66.80;;;;;;5104670;28;20206;-67
2022/12/12 06:05:00;;;;;;;12.85;5.15;;;-7.00;65.00;;;;;;5114144;28;20560;-67
2022/12/12 06:07:27;;;;;;;9.38;5.03;;;-7.00;64.70;;;;;;5112530;28;20188;-67
2022/12/12 06:09:58;;;;;;;9.02;4.80;;;-7.10;65.30;;;;;;5114342;28;20193;-67
2022/12/12 06:12:25;;;;;;;8.75;4.50;;;-7.10;66.40;;;;;;5110259;28;20273;-67
2022/12/12 06:14:53;;;;;;;6.10;3.75;;;-7.10;66.60;;;;;;5114356;28;20218;-67
2022/12/12 06:17:22;;;;;;;6.00;3.70;;;-7.20;66.60;;;;;;5095514;28;20221;-67
2022/12/12 06:19:50;;;;;;;5.80;3.33;;;-7.30;66.90;;;;;;5093880;28;20553;-67
2022/12/12 06:22:17;;;;;;;7.80;4.60;;;-7.40;67.20;;;;;;5110647;28;20272;-67
2022/12/12 06:24:45;;;;;;;8.35;5.43;;;-7.30;67.60;;;;;;5114208;28;20196;-68
2022/12/12 06:27:17;;;;;;;7.05;5.38;;;-7.30;67.80;;;;;;5097249;28;20188;-67
2022/12/12 06:29:44;;;;;;;11.20;6.78;;;-7.30;68.30;;;;;;5093436;28;20193;-67
2022/12/12 06:32:11;;;;;;;20.30;9.27;;;-7.30;68.40;;;;;;5108778;28;20288;-67
2022/12/12 06:34:40;;;;;;;11.77;7.63;;;-7.30;68.30;;;;;;5113717;28;20192;-67
2022/12/12 06:37:08;;;;;;;12.15;6.70;;;-7.30;68.00;;;;;;5098439;28;20196;-68
2022/12/12 06:39:36;;;;;;;16.45;9.80;;;-7.40;68.40;;;;;;5092850;28;20193;-69
2022/12/12 06:42:04;;;;;;;10.35;6.68;;;-7.40;68.90;;;;;;5092684;28;20211;-68
2022/12/12 06:44:33;;;;;;;8.75;5.75;;;-7.50;69.70;;;;;;5093253;28;20222;-67
2022/12/12 06:47:00;;;;;;;10.50;6.93;;;-7.40;69.60;;;;;;5097446;28;20184;-67
2022/12/12 06:49:27;;;;;;;10.73;5.60;;;-7.30;69.60;;;;;;5102159;28;20280;-68
2022/12/12 06:51:56;;;;;;;9.88;5.25;;;-7.20;69.30;;;;;;5095770;28;20196;-66
2022/12/12 06:54:25;;;;;;;8.65;5.03;;;-7.20;69.00;;;;;;5100143;28;20212;-68
2022/12/12 06:56:52;;;;;;;11.43;4.40;;;-7.10;68.50;;;;;;5110708;28;20192;-68
2022/12/12 06:59:19;;;;;;;11.82;6.07;;;-7.10;68.60;;;;;;5092403;28;20200;-68
2022/12/12 07:01:46;;;;;;;7.90;5.05;;;-7.10;68.60;;;;;;5099098;28;20245;-68
2022/12/12 07:04:14;;;;;;;18.95;10.00;;;-7.10;68.50;;;;;;5109279;28;20262;-69
2022/12/12 07:06:42;;;;;;;9.55;5.22;;;-7.10;69.00;;;;;;5094003;28;20185;-68
2022/12/12 07:09:11;;;;;;;9.02;5.07;;;-7.00;69.20;;;;;;5092122;28;20274;-68
2022/12/12 07:11:40;;;;;;;13.23;5.38;;;-7.00;69.10;;;;;;5092129;28;20193;-69
2022/12/12 07:14:08;;;;;;;8.27;5.40;;;-6.90;69.00;;;;;;5091990;28;20606;-69
2022/12/12 07:16:35;;;;;;;12.38;8.18;;;-6.90;68.80;;;;;;5109863;28;20195;-68
2022/12/12 07:19:02;;;;;;;48.17;34.30;;;-6.70;69.60;;;;;;5110449;28;20185;-69
2022/12/12 07:21:30;;;;;;;34.42;26.83;;;-6.60;69.20;;;;;;5093384;28;20192;-68
2022/12/12 07:23:57;;;;;;;49.83;27.20;;;-6.70;68.50;;;;;;5091949;28;20228;-69
2022/12/12 07:26:26;;;;;;;38.58;22.60;;;-6.70;68.40;;;;;;5090660;28;20185;-69
2022/12/12 07:28:54;;;;;;;15.57;9.98;;;-6.70;68.80;;;;;;5090274;28;20190;-68
2022/12/12 07:31:24;;;;;;;28.75;18.95;;;-6.70;68.90;;;;;;5103089;28;20679;-68
2022/12/12 07:33:53;;;;;;;32.72;19.27;;;-6.70;67.90;;;;;;5104843;28;20273;-68
2022/12/12 07:36:20;;;;;;;16.85;9.35;;;-6.70;67.90;;;;;;5091045;28;20196;-68
2022/12/12 07:38:47;;;;;;;13.98;8.50;;;-6.60;68.30;;;;;;5091275;28;20193;-68
2022/12/12 07:41:16;;;;;;;14.18;7.43;;;-6.60;68.20;;;;;;5107161;28;20285;-68
2022/12/12 07:43:46;;;;;;;13.35;6.85;;;-6.60;67.70;;;;;;5103624;28;20192;-68
2022/12/12 07:46:16;;;;;;;11.07;6.45;;;-6.40;67.80;;;;;;5108683;28;20221;-68
2022/12/12 07:48:44;;;;;;;12.93;7.03;;;-6.20;67.10;;;;;;5096029;28;20193;-68
2022/12/12 07:51:12;;;;;;;11.40;8.25;;;-6.00;67.70;;;;;;5108551;28;20225;-68
2022/12/12 07:53:39;;;;;;;14.68;7.65;;;-5.70;67.90;;;;;;5098406;28;20262;-69
2022/12/12 07:56:07;;;;;;;20.85;11.50;;;-5.60;67.40;;;;;;5094314;28;20185;-68
2022/12/12 07:58:34;;;;;;;64.03;38.13;;;-5.50;66.90;;;;;;5101274;28;20176;-68
2022/12/12 08:01:08;;;;;;;71.72;40.38;;;-5.40;65.70;;;;;;5111794;28;20188;-68
2022/12/12 08:03:35;;;;;;;36.60;21.23;;;-5.20;66.00;;;;;;5111927;28;20742;-68
2022/12/12 08:06:05;;;;;;;22.05;13.10;;;-5.20;66.30;;;;;;5104901;28;20230;-68
2022/12/12 08:08:32;;;;;;;14.18;9.05;;;-5.10;66.70;;;;;;5092738;28;20238;-68
2022/12/12 08:10:59;;;;;;;12.93;7.10;;;-5.10;66.60;;;;;;5092774;28;20250;-68
2022/12/12 08:13:26;;;;;;;9.20;5.40;;;-5.00;66.40;;;;;;5092144;28;20216;-68
2022/12/12 08:15:53;;;;;;;13.07;6.70;;;-5.00;65.50;;;;;;5094649;28;20651;-68
2022/12/12 08:18:21;;;;;;;8.68;6.07;;;-5.00;66.10;;;;;;5096460;28;20235;-68
2022/12/12 08:20:50;;;;;;;8.75;6.65;;;-5.00;66.10;;;;;;5096542;28;20215;-68
2022/12/12 08:23:26;;;;;;;7.30;4.70;;;-5.10;66.60;;;;;;5096385;28;20193;-68
2022/12/12 08:25:55;;;;;;;9.93;5.88;;;-5.10;66.50;;;;;;5096963;28;20192;-68
2022/12/12 08:28:22;;;;;;;9.90;5.55;;;-5.00;67.00;;;;;;5096365;28;20203;-68
2022/12/12 08:30:57;;;;;;;11.32;5.90;;;-5.00;67.50;;;;;;5095803;28;20651;-68
2022/12/12 08:33:25;;;;;;;5.90;3.85;;;-4.80;67.30;;;;;;5096430;28;20215;-68
2022/12/12 08:35:52;;;;;;;7.88;5.13;;;-4.70;67.20;;;;;;5096179;28;20231;-68
2022/12/12 08:38:19;;;;;;;10.10;4.88;;;-4.50;67.10;;;;;;5095968;28;20242;-68
2022/12/12 08:40:46;;;;;;;12.95;5.50;;;-4.30;67.10;;;;;;5095849;28;20189;-68
2022/12/12 08:43:13;;;;;;;11.35;6.00;;;-3.90;66.80;;;;;;5095766;28;20189;-68
2022/12/12 08:45:43;;;;;;;6.95;5.05;;;-3.40;66.10;;;;;;5095795;28;20197;-69
2022/12/12 08:48:12;;;;;;;15.07;7.10;;;-2.80;65.20;;;;;;5096257;28;20200;-68
2022/12/12 08:50:41;;;;;;;10.68;5.30;;;-2.30;62.80;;;;;;5096287;28;20197;-69
2022/12/12 08:53:10;;;;;;;5.57;3.88;;;-1.80;60.90;;;;;;5095961;28;20278;-68
2022/12/12 08:55:37;;;;;;;11.35;5.60;;;-1.50;59.10;;;;;;5096123;28;20228;-69
2022/12/12 08:58:04;;;;;;;11.85;5.70;;;-1.20;58.10;;;;;;5095942;28;20700;-68
2022/12/12 09:00:31;;;;;;;17.35;11.68;;;-0.90;57.80;;;;;;5096142;28;20224;-68
2022/12/12 09:02:58;;;;;;;10.82;6.65;;;-0.60;57.40;;;;;;5095512;28;20682;-68
2022/12/12 09:05:25;;;;;;;14.20;9.23;;;-0.40;56.40;;;;;;5095581;28;20317;-68
2022/12/12 09:07:54;;;;;;;9.93;6.40;;;0.00;55.00;;;;;;5095816;28;20185;-68
2022/12/12 09:10:21;;;;;;;7.10;5.40;;;0.30;55.80;;;;;;5095944;28;20228;-68
2022/12/12 09:12:47;;;;;;;13.10;7.93;;;0.70;55.60;;;;;;5095836;28;20189;-69
2022/12/12 09:15:14;;;;;;;9.13;5.75;;;1.10;54.30;;;;;;5095363;28;20220;-68
2022/12/12 09:17:42;;;;;;;11.70;6.15;;;1.50;53.50;;;;;;5095430;28;20595;-68
2022/12/12 09:20:10;;;;;;;10.80;6.90;;;1.90;54.50;;;;;;5095529;28;20193;-68
2022/12/12 09:22:37;;;;;;;9.00;6.18;;;2.50;54.50;;;;;;5095473;28;20324;-66
2022/12/12 09:25:07;;;;;;;19.77;8.75;;;2.90;49.80;;;;;;5095765;28;20193;-69
2022/12/12 09:27:35;;;;;;;8.32;5.70;;;3.20;48.60;;;;;;5094738;28;20193;-68
2022/12/12 09:30:03;;;;;;;12.52;7.15;;;3.40;48.70;;;;;;5095500;28;20242;-69
2022/12/12 09:32:30;;;;;;;11.43;7.15;;;3.60;47.10;;;;;;5095446;28;20196;-68
2022/12/12 09:34:57;;;;;;;15.13;11.20;;;3.80;48.20;;;;;;5095430;28;20228;-68
2022/12/12 09:37:24;;;;;;;13.00;7.43;;;3.80;44.80;;;;;;5095121;28;20250;-68
2022/12/12 09:39:52;;;;;;;9.63;5.88;;;4.00;45.10;;;;;;5095405;28;20586;-68
2022/12/12 09:42:24;;;;;;;13.10;9.10;;;4.30;45.90;;;;;;5095363;28;20192;-68
2022/12/12 09:44:53;;;;;;;7.40;4.68;;;4.70;44.60;;;;;;5098456;28;20246;-68
2022/12/12 09:47:34;;;;;;;14.73;9.20;;;4.80;43.50;;;;;;5102873;28;20720;-68
2022/12/12 09:50:06;;;;;;;38.17;21.65;;;4.90;41.30;;;;;;5095284;28;20193;-68
2022/12/12 09:52:36;;;;;;;8.68;6.70;;;5.00;42.30;;;;;;5095105;28;20279;-68
2022/12/12 09:55:22;;;;;;;11.68;6.85;;;5.30;41.50;;;;;;5099196;28;20273;-68
2022/12/12 09:57:57;;;;;;;6.78;4.15;;;5.50;41.30;;;;;;5096112;28;20204;-69
2022/12/12 10:00:26;;;;;;;8.80;3.85;;;5.80;40.40;;;;;;5099354;28;20707;-68
2022/12/12 10:03:06;;;;;;;7.70;4.22;;;6.00;40.10;;;;;;5095979;28;20200;-68
2022/12/12 10:05:41;;;;;;;5.93;4.30;;;5.90;40.00;;;;;;5055615;28;20200;-68
2022/12/12 10:08:18;;;;;;;5.88;3.85;;;5.90;40.00;;;;;;5059458;28;20248;-68
2022/12/12 10:10:50;;;;;;;5.68;3.80;;;5.90;40.10;;;;;;5056084;28;20190;-68
2022/12/12 10:13:23;;;;;;;10.68;4.53;;;5.70;39.70;;;;;;5056337;28;20222;-67
2022/12/12 10:15:56;;;;;;;7.35;5.03;;;6.00;40.00;;;;;;5056383;28;20230;-67
2022/12/12 10:18:28;;;;;;;7.57;4.97;;;6.40;40.30;;;;;;5056502;28;20190;-68
2022/12/12 10:20:58;;;;;;;6.90;4.47;;;6.70;38.70;;;;;;5057339;28;20198;-68
2022/12/12 10:23:34;;;;;;;7.32;4.20;;;6.50;37.70;;;;;;5059579;28;20557;-68
2022/12/12 10:26:05;;;;;;;6.45;4.15;;;6.60;38.50;;;;;;5059193;28;20707;-68
2022/12/12 10:28:35;;;;;;;7.72;5.07;;;6.60;37.50;;;;;;5068231;28;20206;-68
2022/12/12 10:31:15;;;;;;;9.32;6.10;;;6.60;38.60;;;;;;5062464;28;20198;-68
2022/12/12 10:33:53;;;;;;;8.63;6.50;;;7.00;38.00;;;;;;5064514;28;20284;-67
2022/12/12 10:36:48;;;;;;;7.95;4.57;;;7.30;37.10;;;;;;5063124;28;20197;-68
2022/12/12 10:39:26;;;;;;;6.75;4.47;;;7.20;35.20;;;;;;5065601;28;20225;-69
2022/12/12 10:41:57;;;;;;;8.57;5.45;;;7.00;36.40;;;;;;5065689;28;20319;-68
2022/12/12 10:44:47;;;;;;;13.07;5.10;;;7.30;35.40;;;;;;5065814;28;20194;-68
2022/12/12 10:47:14;;;;;;;8.02;4.82;;;7.60;36.60;;;;;;5065677;28;20256;-68
2022/12/12 10:49:43;;;;;;;7.05;4.22;;;8.00;35.10;;;;;;5063067;28;20190;-65
2022/12/12 10:52:16;;;;;;;8.85;4.90;;;7.80;33.80;;;;;;5064927;28;20198;-68
2022/12/12 10:54:46;;;;;;;5.85;3.85;;;7.90;34.20;;;;;;5063540;28;20217;-68
2022/12/12 10:57:19;;;;;;;13.50;4.50;;;8.00;35.00;;;;;;5063645;28;20248;-68
2022/12/12 10:59:52;;;;;;;8.50;4.63;;;8.10;34.10;;;;;;5062844;28;20694;-68
2022/12/12 11:02:38;;;;;;;5.75;3.97;;;7.90;33.40;;;;;;5062662;28;20542;-67
2022/12/12 11:05:14;;;;;;;6.28;3.80;;;7.90;33.30;;;;;;5093955;28;20224;-68
2022/12/12 11:07:43;;;;;;;5.53;3.65;;;8.00;33.30;;;;;;5103468;28;20290;-68
2022/12/12 11:10:24;;;;;;;7.90;6.57;;;8.20;34.50;;;;;;5104968;28;20195;-68
2022/12/12 11:13:00;;;;;;;8.13;4.47;;;8.30;33.70;;;;;;5105704;28;20554;-68
2022/12/12 11:15:39;;;;;;;6.57;4.15;;;8.20;32.10;;;;;;5106133;28;20709;-68
2022/12/12 11:18:12;;;;;;;6.65;4.00;;;8.40;32.80;;;;;;5105262;28;20523;-67
2022/12/12 11:20:45;;;;;;;7.53;3.13;;;8.50;32.60;;;;;;5105607;28;20714;-68
2022/12/12 11:23:18;;;;;;;7.25;4.97;;;8.50;32.40;;;;;;5105555;28;20278;-68
2022/12/12 11:25:45;;;;;;;6.25;4.05;;;8.70;32.30;;;;;;5106227;28;20250;-68
2022/12/12 11:28:23;;;;;;;4.78;3.38;;;8.50;31.30;;;;;;5107295;28;20695;-68
2022/12/12 11:30:54;;;;;;;5.38;3.50;;;8.40;31.80;;;;;;5107550;28;20631;-68
2022/12/12 11:33:23;;;;;;;7.45;3.75;;;8.20;31.80;;;;;;5106877;28;20242;-68
2022/12/12 11:35:55;;;;;;;5.57;3.92;;;8.10;32.30;;;;;;5107978;28;20197;-68
2022/12/12 11:38:26;;;;;;;6.03;4.50;;;8.40;32.40;;;;;;5103536;28;20193;-68
2022/12/12 11:41:02;;;;;;;5.85;3.72;;;8.80;32.30;;;;;;5109715;28;20197;-68
2022/12/12 11:43:30;;;;;;;7.82;4.30;;;8.90;31.30;;;;;;5110336;28;20245;-67
2022/12/12 11:46:01;;;;;;;5.82;3.80;;;8.80;32.30;;;;;;5108720;28;20715;-68
2022/12/12 11:48:34;;;;;;;8.50;4.40;;;8.80;31.00;;;;;;5109998;28;20197;-68
2022/12/12 11:51:02;;;;;;;6.75;4.05;;;8.90;32.60;;;;;;5109722;28;20196;-68
2022/12/12 11:53:30;;;;;;;5.90;4.05;;;9.00;31.00;;;;;;5111592;28;20231;-68
2022/12/12 11:56:16;;;;;;;7.65;4.63;;;8.70;30.70;;;;;;5115829;28;20249;-68
2022/12/12 11:58:53;;;;;;;7.07;4.25;;;8.10;31.20;;;;;;5113310;28;20330;-68
2022/12/12 12:01:34;;;;;;;5.10;3.65;;;7.60;32.10;;;;;;5114654;28;20237;-67
2022/12/12 12:04:24;;;;;;;7.50;4.95;;;7.50;32.60;;;;;;5111641;28;20231;-68
2022/12/12 12:07:11;;;;;;;7.05;4.45;;;7.00;33.70;;;;;;5115361;28;20197;-68
2022/12/12 12:09:49;;;;;;;7.55;4.50;;;6.60;35.00;;;;;;5097120;28;20263;-68
2022/12/12 12:12:20;;;;;;;6.10;4.43;;;6.20;34.90;;;;;;5097572;28;20269;-68
2022/12/12 12:15:14;;;;;;;5.93;4.03;;;5.90;36.00;;;;;;5101516;28;20670;-67
2022/12/12 12:18:12;;;;;;;5.38;3.67;;;5.60;36.00;;;;;;5102921;28;20270;-67
2022/12/12 12:20:59;;;;;;;6.30;3.92;;;5.40;36.50;;;;;;5098121;28;20224;-68
2022/12/12 12:23:37;;;;;;;6.68;4.00;;;5.20;36.30;;;;;;5107790;28;20196;-68
2022/12/12 12:26:08;;;;;;;6.45;3.92;;;5.50;36.70;;;;;;5112176;28;20223;-68
2022/12/12 12:29:02;;;;;;;5.80;4.32;;;5.70;36.10;;;;;;5105181;28;20229;-67
2022/12/12 12:31:37;;;;;;;6.18;4.25;;;5.70;35.20;;;;;;5103782;28;20242;-67
2022/12/12 12:34:14;;;;;;;6.25;3.60;;;5.90;35.00;;;;;;5100204;28;20659;-68
2022/12/12 12:36:55;;;;;;;7.53;4.43;;;5.90;34.80;;;;;;5099838;28;20196;-68
2022/12/12 12:39:47;;;;;;;7.10;4.28;;;5.60;35.00;;;;;;5099874;28;20189;-68
2022/12/12 12:42:32;;;;;;;8.15;3.78;;;5.10;35.40;;;;;;5106005;28;20185;-67
2022/12/12 12:45:07;;;;;;;7.40;4.50;;;4.60;36.10;;;;;;5106112;28;20631;-68
2022/12/12 12:47:46;;;;;;;7.28;4.60;;;4.50;37.50;;;;;;5107882;28;20282;-68
2022/12/12 12:50:19;;;;;;;5.43;3.95;;;4.40;36.90;;;;;;5104847;28;20185;-67
2022/12/12 12:52:52;;;;;;;5.38;3.55;;;4.20;37.20;;;;;;5110117;28;20247;-67
2022/12/12 12:55:23;;;;;;;5.63;3.65;;;4.00;37.90;;;;;;5110910;28;20228;-67
2022/12/12 12:57:51;;;;;;;7.43;4.35;;;3.90;38.00;;;;;;5111179;28;20200;-67
2022/12/12 13:00:20;;;;;;;7.75;4.15;;;3.90;38.20;;;;;;5107485;28;20196;-67
2022/12/12 13:02:53;;;;;;;6.20;4.18;;;3.90;38.20;;;;;;5112554;28;20188;-68
2022/12/12 13:05:26;;;;;;;5.47;3.08;;;3.90;38.10;;;;;;5107475;28;20228;-68
2022/12/12 13:08:02;;;;;;;5.80;4.28;;;4.00;37.70;;;;;;5095906;28;20193;-67
2022/12/12 13:10:31;;;;;;;6.13;3.35;;;4.00;36.70;;;;;;5095538;28;20193;-68
2022/12/12 13:13:06;;;;;;;5.90;3.60;;;3.90;37.20;;;;;;5095446;28;20589;-68
2022/12/12 13:15:43;;;;;;;4.85;3.15;;;3.90;37.20;;;;;;5095562;28;20223;-68
2022/12/12 13:18:12;;;;;;;4.68;3.03;;;4.00;37.20;;;;;;5095445;28;20280;-68
2022/12/12 13:20:43;;;;;;;4.82;2.90;;;4.10;36.10;;;;;;5095596;28;20227;-68